sensor_id;sensor_type;location;lat;lon;timestamp;pressure;altitude;pressure_sealevel;temperature;humidity
70103;BME280;57470;50.034;15.256;2023-03-22T00:01:51;99185.84;;;11.46;87.67
70103;BME280;57470;50.034;15.256;2023-03-22T00:04:18;99186.78;;;11.22;88.03
70103;BME280;57470;50.034;15.256;2023-03-22T00:06:43;99183.06;;;11.47;87.60
70103;BME280;57470;50.034;15.256;2023-03-22T00:09:10;99187.56;;;11.47;87.14
70103;BME280;57470;50.034;15.256;2023-03-22T00:11:36;99177.59;;;11.38;87.53
70103;BME280;57470;50.034;15.256;2023-03-22T00:14:01;99184.19;;;11.56;87.20
70103;BME280;57470;50.034;15.256;2023-03-22T00:16:27;99181.38;;;11.46;87.22
70103;BME280;57470;50.034;15.256;2023-03-22T00:18:52;99185.41;;;11.52;87.31
70103;BME280;57470;50.034;15.256;2023-03-22T00:21:18;99177.00;;;11.34;87.83
70103;BME280;57470;50.034;15.256;2023-03-22T00:23:43;99176.28;;;11.32;88.04
70103;BME280;57470;50.034;15.256;2023-03-22T00:26:10;99178.34;;;11.40;87.61
70103;BME280;57470;50.034;15.256;2023-03-22T00:28:36;99179.22;;;11.51;87.16
70103;BME280;57470;50.034;15.256;2023-03-22T00:31:03;99178.72;;;11.46;87.48
70103;BME280;57470;50.034;15.256;2023-03-22T00:33:29;99169.13;;;11.33;88.19
70103;BME280;57470;50.034;15.256;2023-03-22T00:36:06;99157.53;;;11.34;88.02
70103;BME280;57470;50.034;15.256;2023-03-22T00:38:33;99162.22;;;11.30;88.46
70103;BME280;57470;50.034;15.256;2023-03-22T00:41:18;99163.44;;;11.26;88.79
70103;BME280;57470;50.034;15.256;2023-03-22T00:43:45;99160.38;;;11.19;88.61
70103;BME280;57470;50.034;15.256;2023-03-22T00:46:11;99160.63;;;11.27;89.17
70103;BME280;57470;50.034;15.256;2023-03-22T00:48:37;99159.13;;;11.36;88.50
70103;BME280;57470;50.034;15.256;2023-03-22T00:51:03;99151.69;;;11.28;89.04
70103;BME280;57470;50.034;15.256;2023-03-22T00:53:28;99149.78;;;11.42;88.25
70103;BME280;57470;50.034;15.256;2023-03-22T00:55:55;99149.66;;;11.32;88.01
70103;BME280;57470;50.034;15.256;2023-03-22T00:58:21;99151.81;;;11.27;88.67
70103;BME280;57470;50.034;15.256;2023-03-22T01:00:47;99147.31;;;11.27;88.71
70103;BME280;57470;50.034;15.256;2023-03-22T01:03:13;99147.19;;;11.18;88.49
70103;BME280;57470;50.034;15.256;2023-03-22T01:05:40;99150.16;;;11.02;89.07
70103;BME280;57470;50.034;15.256;2023-03-22T01:08:09;99153.59;;;11.15;88.38
70103;BME280;57470;50.034;15.256;2023-03-22T01:10:36;99150.66;;;11.07;89.37
70103;BME280;57470;50.034;15.256;2023-03-22T01:13:02;99155.75;;;11.10;88.83
70103;BME280;57470;50.034;15.256;2023-03-22T01:15:27;99147.50;;;11.02;88.58
70103;BME280;57470;50.034;15.256;2023-03-22T01:17:53;99150.03;;;11.04;89.41
70103;BME280;57470;50.034;15.256;2023-03-22T01:20:18;99155.47;;;11.02;88.84
70103;BME280;57470;50.034;15.256;2023-03-22T01:22:43;99150.66;;;11.07;88.19
70103;BME280;57470;50.034;15.256;2023-03-22T01:25:09;99157.09;;;10.57;91.28
70103;BME280;57470;50.034;15.256;2023-03-22T01:27:35;99137.16;;;10.86;89.55
70103;BME280;57470;50.034;15.256;2023-03-22T01:30:00;99146.94;;;10.86;89.46
70103;BME280;57470;50.034;15.256;2023-03-22T01:32:26;99143.38;;;10.74;89.77
70103;BME280;57470;50.034;15.256;2023-03-22T01:34:51;99140.44;;;10.90;88.79
70103;BME280;57470;50.034;15.256;2023-03-22T01:37:17;99143.56;;;10.84;89.49
70103;BME280;57470;50.034;15.256;2023-03-22T01:39:43;99143.34;;;10.87;88.90
70103;BME280;57470;50.034;15.256;2023-03-22T01:42:12;99142.84;;;10.82;89.53
70103;BME280;57470;50.034;15.256;2023-03-22T01:44:41;99142.09;;;10.80;89.54
70103;BME280;57470;50.034;15.256;2023-03-22T01:47:07;99149.09;;;10.57;90.52
70103;BME280;57470;50.034;15.256;2023-03-22T01:49:34;99147.25;;;10.70;90.35
70103;BME280;57470;50.034;15.256;2023-03-22T01:52:07;99143.75;;;10.70;89.95
70103;BME280;57470;50.034;15.256;2023-03-22T01:57:02;99145.66;;;10.68;90.27
70103;BME280;57470;50.034;15.256;2023-03-22T01:59:28;99148.72;;;10.74;90.16
70103;BME280;57470;50.034;15.256;2023-03-22T02:01:54;99150.03;;;10.69;90.57
70103;BME280;57470;50.034;15.256;2023-03-22T02:04:21;99157.31;;;10.78;90.17
70103;BME280;57470;50.034;15.256;2023-03-22T02:06:50;99148.38;;;10.79;89.64
70103;BME280;57470;50.034;15.256;2023-03-22T02:09:18;99146.78;;;10.76;89.95
70103;BME280;57470;50.034;15.256;2023-03-22T02:15:02;99151.25;;;10.76;90.69
70103;BME280;57470;50.034;15.256;2023-03-22T02:17:59;99154.56;;;10.79;90.51
70103;BME280;57470;50.034;15.256;2023-03-22T02:23:46;99145.38;;;10.36;92.63
70103;BME280;57470;50.034;15.256;2023-03-22T02:32:24;99151.38;;;10.74;91.38
70103;BME280;57470;50.034;15.256;2023-03-22T02:41:19;99148.38;;;10.79;91.03
70103;BME280;57470;50.034;15.256;2023-03-22T02:44:05;99134.34;;;10.77;90.57
70103;BME280;57470;50.034;15.256;2023-03-22T02:46:38;99141.16;;;10.81;90.32
70103;BME280;57470;50.034;15.256;2023-03-22T02:49:45;99138.31;;;10.71;91.93
70103;BME280;57470;50.034;15.256;2023-03-22T02:52:53;99137.78;;;10.66;92.03
70103;BME280;57470;50.034;15.256;2023-03-22T02:55:16;99133.22;;;10.68;92.00
70103;BME280;57470;50.034;15.256;2023-03-22T02:57:50;99126.34;;;10.77;92.30
70103;BME280;57470;50.034;15.256;2023-03-22T03:00:19;99128.28;;;10.75;91.65
70103;BME280;57470;50.034;15.256;2023-03-22T03:02:55;99125.22;;;10.68;91.98
70103;BME280;57470;50.034;15.256;2023-03-22T03:05:26;99129.03;;;10.77;91.50
70103;BME280;57470;50.034;15.256;2023-03-22T03:07:58;99128.34;;;10.62;93.00
70103;BME280;57470;50.034;15.256;2023-03-22T03:10:27;99131.69;;;10.77;91.70
70103;BME280;57470;50.034;15.256;2023-03-22T03:12:54;99144.91;;;10.66;92.69
70103;BME280;57470;50.034;15.256;2023-03-22T03:15:21;99131.63;;;10.66;93.01
70103;BME280;57470;50.034;15.256;2023-03-22T03:21:02;99148.03;;;10.83;92.30
70103;BME280;57470;50.034;15.256;2023-03-22T03:26:33;99150.69;;;10.60;94.56
70103;BME280;57470;50.034;15.256;2023-03-22T03:29:43;99158.50;;;10.74;94.09
70103;BME280;57470;50.034;15.256;2023-03-22T03:32:19;99154.16;;;10.73;94.23
70103;BME280;57470;50.034;15.256;2023-03-22T03:37:19;99155.72;;;10.75;93.29
70103;BME280;57470;50.034;15.256;2023-03-22T03:39:57;99156.31;;;10.68;93.12
70103;BME280;57470;50.034;15.256;2023-03-22T03:42:27;99161.69;;;10.79;92.37
70103;BME280;57470;50.034;15.256;2023-03-22T03:44:56;99153.19;;;10.50;93.28
70103;BME280;57470;50.034;15.256;2023-03-22T03:47:23;99156.19;;;10.69;92.70
70103;BME280;57470;50.034;15.256;2023-03-22T03:49:51;99157.03;;;10.70;92.87
70103;BME280;57470;50.034;15.256;2023-03-22T03:52:17;99155.13;;;10.72;93.15
70103;BME280;57470;50.034;15.256;2023-03-22T03:54:43;99159.75;;;10.81;92.37
70103;BME280;57470;50.034;15.256;2023-03-22T03:57:09;99156.63;;;10.87;92.25
70103;BME280;57470;50.034;15.256;2023-03-22T03:59:36;99156.75;;;10.85;92.98
70103;BME280;57470;50.034;15.256;2023-03-22T04:02:01;99161.28;;;10.72;93.17
70103;BME280;57470;50.034;15.256;2023-03-22T04:04:27;99168.47;;;10.83;92.29
70103;BME280;57470;50.034;15.256;2023-03-22T04:06:54;99158.22;;;10.66;93.26
70103;BME280;57470;50.034;15.256;2023-03-22T04:09:24;99161.81;;;10.53;93.60
70103;BME280;57470;50.034;15.256;2023-03-22T04:11:52;99154.25;;;10.47;93.36
70103;BME280;57470;50.034;15.256;2023-03-22T04:14:18;99154.25;;;10.11;95.79
70103;BME280;57470;50.034;15.256;2023-03-22T04:16:43;99154.22;;;10.36;93.25
70103;BME280;57470;50.034;15.256;2023-03-22T04:19:09;99149.00;;;10.35;93.29
70103;BME280;57470;50.034;15.256;2023-03-22T04:21:35;99155.16;;;10.35;92.41
70103;BME280;57470;50.034;15.256;2023-03-22T04:24:00;99154.03;;;10.27;92.56
70103;BME280;57470;50.034;15.256;2023-03-22T04:26:26;99149.44;;;10.16;92.65
70103;BME280;57470;50.034;15.256;2023-03-22T04:28:51;99150.09;;;10.07;92.46
70103;BME280;57470;50.034;15.256;2023-03-22T04:31:16;99155.72;;;10.02;91.73
70103;BME280;57470;50.034;15.256;2023-03-22T04:33:42;99158.94;;;9.95;91.74
70103;BME280;57470;50.034;15.256;2023-03-22T04:36:12;99161.53;;;9.84;91.34
70103;BME280;57470;50.034;15.256;2023-03-22T04:38:41;99156.31;;;9.69;91.72
70103;BME280;57470;50.034;15.256;2023-03-22T04:41:08;99154.41;;;9.59;90.83
70103;BME280;57470;50.034;15.256;2023-03-22T04:43:33;99154.63;;;9.56;91.14
70103;BME280;57470;50.034;15.256;2023-03-22T04:46:02;99155.16;;;9.48;90.66
70103;BME280;57470;50.034;15.256;2023-03-22T04:48:28;99157.06;;;9.33;90.87
70103;BME280;57470;50.034;15.256;2023-03-22T04:50:53;99148.13;;;9.22;91.20
70103;BME280;57470;50.034;15.256;2023-03-22T04:53:19;99149.16;;;9.07;91.87
70103;BME280;57470;50.034;15.256;2023-03-22T04:55:53;99158.59;;;8.98;91.67
70103;BME280;57470;50.034;15.256;2023-03-22T04:58:22;99162.56;;;8.78;92.67
70103;BME280;57470;50.034;15.256;2023-03-22T05:00:47;99161.22;;;8.85;92.19
70103;BME280;57470;50.034;15.256;2023-03-22T05:03:13;99156.91;;;8.43;94.06
70103;BME280;57470;50.034;15.256;2023-03-22T05:05:52;99155.94;;;8.58;92.49
70103;BME280;57470;50.034;15.256;2023-03-22T05:08:19;99156.41;;;8.51;92.54
70103;BME280;57470;50.034;15.256;2023-03-22T05:10:45;99153.63;;;8.40;92.96
70103;BME280;57470;50.034;15.256;2023-03-22T05:13:10;99156.47;;;8.37;92.32
70103;BME280;57470;50.034;15.256;2023-03-22T05:15:37;99159.97;;;8.37;92.27
70103;BME280;57470;50.034;15.256;2023-03-22T05:18:03;99159.88;;;8.24;92.82
70103;BME280;57470;50.034;15.256;2023-03-22T05:20:28;99156.59;;;8.21;93.16
70103;BME280;57470;50.034;15.256;2023-03-22T05:22:54;99159.50;;;8.31;94.18
70103;BME280;57470;50.034;15.256;2023-03-22T05:25:21;99156.28;;;8.40;93.48
70103;BME280;57470;50.034;15.256;2023-03-22T05:27:46;99153.72;;;8.24;94.16
70103;BME280;57470;50.034;15.256;2023-03-22T05:30:15;99153.28;;;8.32;95.05
70103;BME280;57470;50.034;15.256;2023-03-22T05:32:40;99154.59;;;8.39;95.81
70103;BME280;57470;50.034;15.256;2023-03-22T05:35:08;99160.88;;;8.50;95.65
70103;BME280;57470;50.034;15.256;2023-03-22T05:37:34;99163.41;;;8.66;95.31
70103;BME280;57470;50.034;15.256;2023-03-22T05:40:00;99167.13;;;8.76;95.24
70103;BME280;57470;50.034;15.256;2023-03-22T05:42:26;99162.78;;;8.75;95.84
70103;BME280;57470;50.034;15.256;2023-03-22T05:44:51;99165.78;;;8.83;95.89
70103;BME280;57470;50.034;15.256;2023-03-22T05:47:17;99170.63;;;9.03;96.18
70103;BME280;57470;50.034;15.256;2023-03-22T05:49:42;99166.88;;;9.06;97.00
70103;BME280;57470;50.034;15.256;2023-03-22T05:52:07;99165.75;;;9.23;96.97
70103;BME280;57470;50.034;15.256;2023-03-22T05:54:33;99162.25;;;9.35;97.67
70103;BME280;57470;50.034;15.256;2023-03-22T05:56:59;99163.56;;;9.55;96.78
70103;BME280;57470;50.034;15.256;2023-03-22T05:59:24;99163.44;;;9.82;96.02
70103;BME280;57470;50.034;15.256;2023-03-22T06:01:50;99160.16;;;9.65;96.87
70103;BME280;57470;50.034;15.256;2023-03-22T06:04:15;99165.84;;;9.85;97.35
70103;BME280;57470;50.034;15.256;2023-03-22T06:06:42;99168.03;;;10.16;95.00
70103;BME280;57470;50.034;15.256;2023-03-22T06:09:08;99169.22;;;10.12;95.30
70103;BME280;57470;50.034;15.256;2023-03-22T06:11:33;99169.50;;;10.45;94.36
70103;BME280;57470;50.034;15.256;2023-03-22T06:13:59;99167.34;;;10.50;94.85
70103;BME280;57470;50.034;15.256;2023-03-22T06:16:26;99171.97;;;10.60;95.02
70103;BME280;57470;50.034;15.256;2023-03-22T06:18:52;99174.34;;;10.75;94.33
70103;BME280;57470;50.034;15.256;2023-03-22T06:21:17;99176.56;;;10.81;94.32
70103;BME280;57470;50.034;15.256;2023-03-22T06:23:42;99174.75;;;10.82;93.42
70103;BME280;57470;50.034;15.256;2023-03-22T06:26:08;99168.03;;;10.89;94.06
70103;BME280;57470;50.034;15.256;2023-03-22T06:28:36;99168.28;;;11.78;91.93
70103;BME280;57470;50.034;15.256;2023-03-22T06:31:08;99164.00;;;12.43;88.55
70103;BME280;57470;50.034;15.256;2023-03-22T06:33:35;99160.75;;;13.76;84.25
70103;BME280;57470;50.034;15.256;2023-03-22T06:36:01;99160.84;;;13.96;84.95
70103;BME280;57470;50.034;15.256;2023-03-22T06:38:27;99164.34;;;14.95;81.67
70103;BME280;57470;50.034;15.256;2023-03-22T06:40:53;99161.53;;;15.26;79.40
70103;BME280;57470;50.034;15.256;2023-03-22T06:43:18;99171.38;;;13.97;84.26
70103;BME280;57470;50.034;15.256;2023-03-22T06:45:47;99168.75;;;14.07;85.00
70103;BME280;57470;50.034;15.256;2023-03-22T06:48:13;99162.06;;;14.22;84.61
70103;BME280;57470;50.034;15.256;2023-03-22T06:50:39;99159.53;;;13.90;81.94
70103;BME280;57470;50.034;15.256;2023-03-22T06:53:06;99169.25;;;14.71;81.92
70103;BME280;57470;50.034;15.256;2023-03-22T06:55:32;99173.22;;;14.37;80.25
70103;BME280;57470;50.034;15.256;2023-03-22T06:58:00;99173.41;;;14.14;81.91
70103;BME280;57470;50.034;15.256;2023-03-22T07:00:26;99170.91;;;14.53;81.62
70103;BME280;57470;50.034;15.256;2023-03-22T07:02:51;99166.56;;;15.67;77.73
70103;BME280;57470;50.034;15.256;2023-03-22T07:05:16;99167.88;;;15.06;78.41
70103;BME280;57470;50.034;15.256;2023-03-22T07:07:42;99161.91;;;14.63;77.59
70103;BME280;57470;50.034;15.256;2023-03-22T07:10:08;99157.59;;;15.20;76.66
70103;BME280;57470;50.034;15.256;2023-03-22T07:12:34;99155.75;;;15.21;77.68
70103;BME280;57470;50.034;15.256;2023-03-22T07:14:59;99154.44;;;15.63;77.04
70103;BME280;57470;50.034;15.256;2023-03-22T07:17:25;99145.94;;;15.77;76.03
70103;BME280;57470;50.034;15.256;2023-03-22T07:19:50;99151.88;;;15.71;74.71
70103;BME280;57470;50.034;15.256;2023-03-22T07:22:15;99162.69;;;16.26;74.67
70103;BME280;57470;50.034;15.256;2023-03-22T07:24:41;99161.91;;;16.16;73.13
70103;BME280;57470;50.034;15.256;2023-03-22T07:27:06;99156.13;;;16.38;74.23
70103;BME280;57470;50.034;15.256;2023-03-22T07:29:32;99157.81;;;16.39;72.29
70103;BME280;57470;50.034;15.256;2023-03-22T07:31:57;99153.59;;;15.72;74.34
70103;BME280;57470;50.034;15.256;2023-03-22T07:34:23;99155.97;;;16.12;74.84
70103;BME280;57470;50.034;15.256;2023-03-22T07:36:48;99154.38;;;15.92;75.03
70103;BME280;57470;50.034;15.256;2023-03-22T07:39:14;99153.47;;;15.64;72.40
70103;BME280;57470;50.034;15.256;2023-03-22T07:41:39;99159.94;;;15.71;71.83
70103;BME280;57470;50.034;15.256;2023-03-22T07:44:05;99156.78;;;15.86;72.69
70103;BME280;57470;50.034;15.256;2023-03-22T07:46:31;99153.16;;;15.58;70.54
70103;BME280;57470;50.034;15.256;2023-03-22T07:48:57;99153.34;;;15.56;71.16
70103;BME280;57470;50.034;15.256;2023-03-22T07:51:22;99159.47;;;14.51;74.77
70103;BME280;57470;50.034;15.256;2023-03-22T07:53:48;99154.19;;;15.28;73.69
70103;BME280;57470;50.034;15.256;2023-03-22T07:56:13;99154.13;;;15.66;72.35
70103;BME280;57470;50.034;15.256;2023-03-22T07:58:38;99155.38;;;15.91;70.42
70103;BME280;57470;50.034;15.256;2023-03-22T08:01:05;99158.28;;;15.98;69.93
70103;BME280;57470;50.034;15.256;2023-03-22T08:03:34;99158.50;;;16.14;69.60
70103;BME280;57470;50.034;15.256;2023-03-22T08:06:01;99155.72;;;16.06;69.17
70103;BME280;57470;50.034;15.256;2023-03-22T08:08:31;99157.50;;;16.15;70.71
70103;BME280;57470;50.034;15.256;2023-03-22T08:10:56;99157.19;;;16.28;69.07
70103;BME280;57470;50.034;15.256;2023-03-22T08:13:21;99148.75;;;16.40;68.14
70103;BME280;57470;50.034;15.256;2023-03-22T08:15:47;99145.94;;;16.69;67.83
70103;BME280;57470;50.034;15.256;2023-03-22T08:18:12;99144.00;;;16.34;68.03
70103;BME280;57470;50.034;15.256;2023-03-22T08:20:38;99143.06;;;16.53;68.17
70103;BME280;57470;50.034;15.256;2023-03-22T08:23:03;99144.00;;;16.34;69.82
70103;BME280;57470;50.034;15.256;2023-03-22T08:25:29;99144.09;;;16.70;67.55
70103;BME280;57470;50.034;15.256;2023-03-22T08:27:56;99143.72;;;16.10;69.57
70103;BME280;57470;50.034;15.256;2023-03-22T08:30:21;99138.41;;;15.91;68.66
70103;BME280;57470;50.034;15.256;2023-03-22T08:32:47;99143.69;;;16.37;69.06
70103;BME280;57470;50.034;15.256;2023-03-22T08:35:12;99145.41;;;16.83;66.58
70103;BME280;57470;50.034;15.256;2023-03-22T08:37:38;99143.34;;;16.77;67.70
70103;BME280;57470;50.034;15.256;2023-03-22T08:40:05;99139.66;;;16.96;66.15
70103;BME280;57470;50.034;15.256;2023-03-22T08:42:32;99141.34;;;16.62;66.19
70103;BME280;57470;50.034;15.256;2023-03-22T08:44:58;99135.50;;;16.39;66.20
70103;BME280;57470;50.034;15.256;2023-03-22T08:47:23;99131.75;;;16.49;66.13
70103;BME280;57470;50.034;15.256;2023-03-22T08:49:48;99134.91;;;17.25;64.55
70103;BME280;57470;50.034;15.256;2023-03-22T08:52:14;99131.31;;;16.54;66.87
70103;BME280;57470;50.034;15.256;2023-03-22T08:54:39;99124.25;;;16.98;65.20
70103;BME280;57470;50.034;15.256;2023-03-22T08:57:05;99123.41;;;16.98;66.89
70103;BME280;57470;50.034;15.256;2023-03-22T08:59:33;99120.09;;;17.04;64.49
70103;BME280;57470;50.034;15.256;2023-03-22T09:01:58;99123.88;;;17.37;62.97
70103;BME280;57470;50.034;15.256;2023-03-22T09:04:24;99125.09;;;16.99;64.58
70103;BME280;57470;50.034;15.256;2023-03-22T09:06:50;99120.47;;;17.27;62.86
70103;BME280;57470;50.034;15.256;2023-03-22T09:09:16;99123.03;;;17.36;65.24
70103;BME280;57470;50.034;15.256;2023-03-22T09:11:41;99115.53;;;17.66;64.52
70103;BME280;57470;50.034;15.256;2023-03-22T09:14:08;99116.47;;;17.82;62.55
70103;BME280;57470;50.034;15.256;2023-03-22T09:16:34;99107.75;;;17.80;63.39
70103;BME280;57470;50.034;15.256;2023-03-22T09:19:00;99112.16;;;17.63;64.12
70103;BME280;57470;50.034;15.256;2023-03-22T09:21:26;99112.78;;;16.96;64.39
70103;BME280;57470;50.034;15.256;2023-03-22T09:23:54;99098.47;;;17.31;63.94
70103;BME280;57470;50.034;15.256;2023-03-22T09:26:19;99110.53;;;18.05;62.60
70103;BME280;57470;50.034;15.256;2023-03-22T09:28:46;99098.94;;;18.04;61.87
70103;BME280;57470;50.034;15.256;2023-03-22T09:31:12;99099.91;;;17.95;60.40
70103;BME280;57470;50.034;15.256;2023-03-22T09:33:39;99109.41;;;17.81;61.35
70103;BME280;57470;50.034;15.256;2023-03-22T09:36:06;99103.84;;;18.17;61.70
70103;BME280;57470;50.034;15.256;2023-03-22T09:38:32;99098.31;;;17.84;62.59
70103;BME280;57470;50.034;15.256;2023-03-22T09:41:02;99105.44;;;17.93;61.61
70103;BME280;57470;50.034;15.256;2023-03-22T09:43:38;99096.47;;;17.85;61.45
70103;BME280;57470;50.034;15.256;2023-03-22T09:46:09;99090.41;;;17.57;61.81
70103;BME280;57470;50.034;15.256;2023-03-22T09:48:39;99095.84;;;18.25;61.92
70103;BME280;57470;50.034;15.256;2023-03-22T09:51:16;99088.03;;;18.72;61.58
70103;BME280;57470;50.034;15.256;2023-03-22T09:53:44;99088.50;;;18.51;61.61
70103;BME280;57470;50.034;15.256;2023-03-22T09:56:25;99080.66;;;18.74;59.60
70103;BME280;57470;50.034;15.256;2023-03-22T09:58:52;99084.72;;;19.02;58.65
70103;BME280;57470;50.034;15.256;2023-03-22T10:01:50;99079.00;;;19.14;59.10
70103;BME280;57470;50.034;15.256;2023-03-22T10:04:23;99080.66;;;18.74;59.39
70103;BME280;57470;50.034;15.256;2023-03-22T10:17:35;99068.69;;;19.58;57.54
70103;BME280;57470;50.034;15.256;2023-03-22T10:20:04;99055.63;;;19.77;56.45
70103;BME280;57470;50.034;15.256;2023-03-22T10:22:35;99059.13;;;19.94;55.90
70103;BME280;57470;50.034;15.256;2023-03-22T10:25:05;99055.81;;;19.76;57.97
70103;BME280;57470;50.034;15.256;2023-03-22T10:27:31;99051.19;;;19.93;55.72
70103;BME280;57470;50.034;15.256;2023-03-22T10:32:50;99053.69;;;19.39;57.29
70103;BME280;57470;50.034;15.256;2023-03-22T10:35:16;99052.09;;;20.16;57.00
70103;BME280;57470;50.034;15.256;2023-03-22T10:37:46;99047.19;;;20.19;54.67
70103;BME280;57470;50.034;15.256;2023-03-22T10:40:20;99034.50;;;19.89;58.10
70103;BME280;57470;50.034;15.256;2023-03-22T10:43:01;99041.03;;;19.56;56.41
70103;BME280;57470;50.034;15.256;2023-03-22T10:45:30;99049.28;;;19.62;58.11
70103;BME280;57470;50.034;15.256;2023-03-22T10:48:04;99037.75;;;19.84;56.27
70103;BME280;57470;50.034;15.256;2023-03-22T10:50:33;99031.25;;;19.55;58.01
70103;BME280;57470;50.034;15.256;2023-03-22T10:55:39;99034.97;;;20.01;57.90
70103;BME280;57470;50.034;15.256;2023-03-22T10:58:14;99030.88;;;20.44;54.53
70103;BME280;57470;50.034;15.256;2023-03-22T11:06:14;99024.06;;;21.16;53.20
70103;BME280;57470;50.034;15.256;2023-03-22T11:08:46;99031.56;;;20.91;54.97
70103;BME280;57470;50.034;15.256;2023-03-22T11:14:01;99016.16;;;20.92;54.73
70103;BME280;57470;50.034;15.256;2023-03-22T11:16:28;99021.84;;;20.29;56.06
70103;BME280;57470;50.034;15.256;2023-03-22T11:18:56;99012.34;;;20.64;54.12
70103;BME280;57470;50.034;15.256;2023-03-22T11:21:27;99008.69;;;20.94;54.52
70103;BME280;57470;50.034;15.256;2023-03-22T11:23:57;99012.69;;;20.38;55.65
70103;BME280;57470;50.034;15.256;2023-03-22T11:26:34;99005.81;;;20.95;54.36
70103;BME280;57470;50.034;15.256;2023-03-22T11:29:16;99002.78;;;21.13;53.76
70103;BME280;57470;50.034;15.256;2023-03-22T11:31:55;99000.59;;;21.76;51.91
70103;BME280;57470;50.034;15.256;2023-03-22T11:34:23;98995.19;;;21.76;52.34
70103;BME280;57470;50.034;15.256;2023-03-22T11:36:49;98988.44;;;22.16;52.04
70103;BME280;57470;50.034;15.256;2023-03-22T11:39:22;98979.50;;;22.36;51.70
70103;BME280;57470;50.034;15.256;2023-03-22T11:41:48;98982.28;;;21.92;54.61
70103;BME280;57470;50.034;15.256;2023-03-22T11:44:18;98985.59;;;21.06;56.71
70103;BME280;57470;50.034;15.256;2023-03-22T11:46:57;98982.34;;;21.63;55.54
70103;BME280;57470;50.034;15.256;2023-03-22T11:49:31;98974.75;;;20.54;57.25
70103;BME280;57470;50.034;15.256;2023-03-22T11:52:16;98967.69;;;21.43;55.53
70103;BME280;57470;50.034;15.256;2023-03-22T11:54:44;98966.72;;;21.21;54.88
70103;BME280;57470;50.034;15.256;2023-03-22T11:57:25;98949.50;;;20.84;54.66
70103;BME280;57470;50.034;15.256;2023-03-22T11:59:59;98963.09;;;21.43;55.31
70103;BME280;57470;50.034;15.256;2023-03-22T12:02:28;98963.84;;;20.47;56.80
70103;BME280;57470;50.034;15.256;2023-03-22T12:04:59;98963.66;;;20.18;59.27
70103;BME280;57470;50.034;15.256;2023-03-22T12:07:30;98958.13;;;19.41;58.14
70103;BME280;57470;50.034;15.256;2023-03-22T12:12:44;98948.53;;;20.77;57.55
70103;BME280;57470;50.034;15.256;2023-03-22T12:15:28;98942.28;;;20.31;58.68
70103;BME280;57470;50.034;15.256;2023-03-22T12:18:06;98941.72;;;19.59;59.02
70103;BME280;57470;50.034;15.256;2023-03-22T12:20:46;98935.97;;;20.47;57.18
70103;BME280;57470;50.034;15.256;2023-03-22T12:23:18;98931.00;;;21.11;56.91
70103;BME280;57470;50.034;15.256;2023-03-22T12:25:49;98922.66;;;20.97;56.03
70103;BME280;57470;50.034;15.256;2023-03-22T12:28:20;98917.78;;;20.78;56.91
70103;BME280;57470;50.034;15.256;2023-03-22T12:30:48;98919.13;;;20.59;57.49
70103;BME280;57470;50.034;15.256;2023-03-22T12:33:29;98914.19;;;21.01;56.50
70103;BME280;57470;50.034;15.256;2023-03-22T12:36:02;98907.94;;;21.95;54.17
70103;BME280;57470;50.034;15.256;2023-03-22T12:38:38;98909.25;;;21.63;55.76
70103;BME280;57470;50.034;15.256;2023-03-22T12:41:08;98903.69;;;21.86;56.12
70103;BME280;57470;50.034;15.256;2023-03-22T12:43:53;98892.34;;;22.54;51.44
70103;BME280;57470;50.034;15.256;2023-03-22T12:46:22;98902.41;;;21.82;54.14
70103;BME280;57470;50.034;15.256;2023-03-22T12:48:59;98894.41;;;22.10;52.09
70103;BME280;57470;50.034;15.256;2023-03-22T12:51:25;98884.78;;;22.07;52.91
70103;BME280;57470;50.034;15.256;2023-03-22T12:53:52;98887.66;;;22.69;51.90
70103;BME280;57470;50.034;15.256;2023-03-22T12:59:00;98873.66;;;22.94;52.12
70103;BME280;57470;50.034;15.256;2023-03-22T13:01:38;98869.66;;;22.62;50.06
70103;BME280;57470;50.034;15.256;2023-03-22T13:09:49;98868.16;;;21.74;49.89
70103;BME280;57470;50.034;15.256;2023-03-22T13:19:54;98853.59;;;21.96;52.06
70103;BME280;57470;50.034;15.256;2023-03-22T13:22:27;98848.81;;;22.62;52.69
70103;BME280;57470;50.034;15.256;2023-03-22T13:30:14;98856.47;;;20.93;51.36
70103;BME280;57470;50.034;15.256;2023-03-22T13:32:46;98844.63;;;21.09;51.41
70103;BME280;57470;50.034;15.256;2023-03-22T13:35:37;98844.84;;;21.58;50.61
70103;BME280;57470;50.034;15.256;2023-03-22T13:43:34;98840.91;;;22.39;49.23
70103;BME280;57470;50.034;15.256;2023-03-22T13:46:26;98834.50;;;21.98;49.60
70103;BME280;57470;50.034;15.256;2023-03-22T13:51:30;98831.38;;;20.85;51.77
70103;BME280;57470;50.034;15.256;2023-03-22T13:54:19;98829.59;;;21.07;50.07
70103;BME280;57470;50.034;15.256;2023-03-22T13:56:51;98821.41;;;20.33;51.29
70103;BME280;57470;50.034;15.256;2023-03-22T13:59:27;98810.88;;;21.05;52.17
70103;BME280;57470;50.034;15.256;2023-03-22T14:02:17;98813.75;;;21.04;52.08
70103;BME280;57470;50.034;15.256;2023-03-22T14:04:54;98799.88;;;21.57;50.50
70103;BME280;57470;50.034;15.256;2023-03-22T14:07:36;98809.97;;;22.27;49.81
70103;BME280;57470;50.034;15.256;2023-03-22T14:12:52;98802.84;;;21.62;48.85
70103;BME280;57470;50.034;15.256;2023-03-22T14:15:22;98793.16;;;21.17;49.08
70103;BME280;57470;50.034;15.256;2023-03-22T14:17:50;98798.09;;;21.86;50.54
70103;BME280;57470;50.034;15.256;2023-03-22T14:20:21;98788.06;;;22.29;49.44
70103;BME280;57470;50.034;15.256;2023-03-22T14:22:57;98792.84;;;21.99;49.24
70103;BME280;57470;50.034;15.256;2023-03-22T14:25:29;98781.47;;;21.89;48.43
70103;BME280;57470;50.034;15.256;2023-03-22T14:27:56;98794.00;;;21.18;49.19
70103;BME280;57470;50.034;15.256;2023-03-22T14:33:17;98790.63;;;20.86;50.75